createdAt,value
2022-10-19T00:01:18.580Z,5.68
2022-10-19T00:06:26.285Z,12.05
2022-10-19T00:09:14.913Z,11.32
2022-10-19T00:11:45.348Z,8.65
2022-10-19T00:14:17.158Z,8.48
2022-10-19T00:16:46.039Z,5.50
2022-10-19T00:21:41.802Z,4.95
2022-10-19T00:24:09.426Z,6.47
2022-10-19T00:26:36.602Z,7.47
2022-10-19T00:29:05.692Z,10.52
2022-10-19T00:31:33.107Z,8.60
2022-10-19T00:34:01.167Z,6.97
2022-10-19T00:36:29.664Z,6.85
2022-10-19T00:38:58.837Z,7.78
2022-10-19T00:41:30.800Z,10.13
2022-10-19T00:44:29.856Z,9.05
2022-10-19T00:47:05.105Z,8.32
2022-10-19T00:52:11.938Z,7.32
2022-10-19T00:54:40.690Z,7.75
2022-10-19T00:57:08.846Z,7.47
2022-10-19T00:59:37.546Z,15.68
2022-10-19T01:02:05.979Z,10.52
2022-10-19T01:04:36.703Z,5.88
2022-10-19T01:07:05.494Z,6.38
2022-10-19T01:09:32.893Z,8.27
2022-10-19T01:12:30.090Z,7.90
2022-10-19T01:15:03.320Z,14.00
2022-10-19T01:17:31.570Z,6.95
2022-10-19T01:20:29.429Z,7.70
2022-10-19T01:23:29.999Z,6.93
2022-10-19T01:26:32.620Z,10.27
2022-10-19T01:29:11.952Z,19.50
2022-10-19T01:32:00.952Z,8.88
2022-10-19T01:34:55.966Z,9.98
2022-10-19T01:37:37.608Z,7.63
2022-10-19T01:40:15.383Z,9.27
2022-10-19T01:45:30.249Z,7.43
2022-10-19T01:48:10.009Z,9.73
2022-10-19T01:50:49.106Z,6.85
2022-10-19T01:53:19.847Z,9.18
2022-10-19T01:55:51.498Z,8.80
2022-10-19T01:58:24.964Z,8.73
2022-10-19T02:00:55.370Z,11.18
2022-10-19T02:03:24.979Z,8.43
2022-10-19T02:05:54.279Z,11.38
2022-10-19T02:08:30.438Z,10.13
2022-10-19T02:10:59.981Z,9.10
2022-10-19T02:13:29.394Z,12.65
2022-10-19T02:16:02.177Z,13.52
2022-10-19T02:18:34.395Z,8.57
2022-10-19T02:21:04.004Z,9.75
2022-10-19T02:23:31.397Z,11.80
2022-10-19T02:25:58.838Z,8.02
2022-10-19T02:31:00.085Z,8.85
2022-10-19T02:38:25.078Z,8.85
2022-10-19T02:41:07.445Z,9.45
2022-10-19T02:43:38.579Z,8.52
2022-10-19T02:46:21.441Z,15.23
2022-10-19T02:48:51.091Z,11.85
2022-10-19T02:51:36.891Z,10.38
2022-10-19T02:54:06.701Z,12.38
2022-10-19T02:56:35.458Z,14.85
2022-10-19T02:59:03.150Z,8.77
2022-10-19T03:01:30.210Z,8.07
2022-10-19T03:03:57.468Z,8.73
2022-10-19T03:06:24.580Z,11.75
2022-10-19T03:08:51.806Z,8.15
2022-10-19T03:11:18.793Z,10.10
2022-10-19T03:16:13.993Z,10.20
2022-10-19T03:18:41.440Z,14.38
2022-10-19T03:21:13.392Z,11.15
2022-10-19T03:23:40.825Z,11.20
2022-10-19T03:26:11.495Z,10.40
2022-10-19T03:28:41.187Z,14.45
2022-10-19T03:31:08.251Z,14.20
2022-10-19T03:33:35.514Z,10.80
2022-10-19T03:36:21.886Z,12.30
2022-10-19T03:38:53.745Z,13.25
2022-10-19T03:41:22.726Z,20.63
2022-10-19T03:43:50.101Z,26.25
2022-10-19T03:46:17.407Z,11.95
2022-10-19T03:48:45.104Z,12.77
2022-10-19T03:51:14.559Z,14.15
2022-10-19T03:53:41.941Z,14.55
2022-10-19T03:56:13.011Z,12.57
2022-10-19T03:58:42.294Z,10.32
2022-10-19T04:01:12.979Z,11.90
2022-10-19T04:03:41.245Z,12.38
2022-10-19T04:06:21.341Z,16.67
2022-10-19T04:08:50.262Z,11.57
2022-10-19T04:11:20.345Z,11.40
2022-10-19T04:13:52.404Z,9.50
2022-10-19T04:16:20.949Z,11.32
2022-10-19T04:18:48.662Z,11.05
2022-10-19T04:21:38.558Z,10.40
2022-10-19T04:24:10.608Z,12.52
2022-10-19T04:27:02.488Z,11.55
2022-10-19T04:31:59.755Z,9.30
2022-10-19T04:34:28.298Z,12.20
2022-10-19T04:36:55.395Z,10.90
2022-10-19T04:39:22.625Z,13.00
2022-10-19T04:41:49.739Z,12.65
2022-10-19T04:44:17.889Z,8.55
2022-10-19T04:46:44.871Z,10.70
2022-10-19T04:49:16.472Z,10.68
2022-10-19T04:51:52.813Z,12.00
2022-10-19T04:54:20.091Z,11.23
2022-10-19T04:56:47.099Z,13.68
2022-10-19T04:59:16.844Z,13.75
2022-10-19T05:01:46.384Z,15.25
2022-10-19T05:04:14.620Z,12.07
2022-10-19T05:06:41.660Z,9.38
2022-10-19T05:09:08.872Z,11.32
2022-10-19T05:11:36.026Z,13.48
2022-10-19T05:14:04.537Z,15.90
2022-10-19T05:16:34.066Z,24.67
2022-10-19T05:19:03.603Z,21.38
2022-10-19T05:21:31.081Z,19.50
2022-10-19T05:23:58.446Z,32.10
2022-10-19T05:26:27.193Z,29.60
2022-10-19T05:31:29.952Z,21.15
2022-10-19T05:33:57.748Z,33.97
2022-10-19T05:36:34.901Z,31.13
2022-10-19T05:39:23.044Z,22.52
2022-10-19T05:41:50.239Z,54.53
2022-10-19T05:44:22.665Z,95.20
2022-10-19T05:46:51.112Z,55.78
2022-10-19T05:49:22.216Z,49.70
2022-10-19T05:51:50.789Z,66.97
2022-10-19T05:54:20.361Z,148.27
2022-10-19T05:56:50.060Z,131.52
2022-10-19T05:59:19.713Z,80.57
2022-10-19T06:01:47.451Z,57.70
2022-10-19T06:06:45.736Z,55.00
2022-10-19T06:09:13.253Z,47.70
2022-10-19T06:11:42.312Z,39.47
2022-10-19T06:16:40.667Z,27.00
2022-10-19T06:19:08.101Z,24.48
2022-10-19T06:21:36.059Z,31.90
2022-10-19T06:24:05.864Z,30.20
2022-10-19T06:26:34.973Z,23.95
2022-10-19T06:29:03.765Z,25.92
2022-10-19T06:34:00.973Z,15.02
2022-10-19T06:36:30.957Z,16.77
2022-10-19T06:39:01.833Z,19.05
2022-10-19T06:41:30.537Z,14.48
2022-10-19T06:43:58.456Z,17.98
2022-10-19T06:46:27.682Z,25.30
2022-10-19T06:49:00.820Z,19.27
2022-10-19T06:51:29.421Z,14.43
2022-10-19T06:54:00.649Z,13.18
2022-10-19T06:56:27.781Z,19.90
2022-10-19T06:58:55.903Z,19.02
2022-10-19T07:01:24.458Z,18.95
2022-10-19T07:03:52.898Z,18.70
2022-10-19T07:06:20.496Z,13.98
2022-10-19T07:08:48.889Z,22.48
2022-10-19T07:11:18.349Z,22.50
2022-10-19T07:13:45.749Z,19.52
2022-10-19T07:16:17.978Z,16.17
2022-10-19T07:21:16.877Z,12.98
2022-10-19T07:23:47.181Z,16.73
2022-10-19T07:26:28.345Z,13.85
2022-10-19T07:28:57.351Z,12.60
2022-10-19T07:31:26.567Z,14.32
2022-10-19T07:33:55.585Z,16.58
2022-10-19T07:36:24.062Z,20.73
2022-10-19T07:38:51.843Z,19.10
2022-10-19T07:41:21.139Z,19.33
2022-10-19T07:43:49.960Z,15.15
2022-10-19T07:46:19.701Z,21.98
2022-10-19T07:48:47.555Z,13.18
2022-10-19T07:51:16.545Z,12.27
2022-10-19T07:53:44.196Z,15.32
2022-10-19T07:56:22.916Z,18.63
2022-10-19T07:58:51.356Z,19.58
2022-10-19T08:01:23.786Z,16.73
2022-10-19T08:04:48.739Z,15.75
2022-10-19T08:06:43.644Z,16.90
2022-10-19T08:09:23.030Z,26.75
2022-10-19T08:11:59.169Z,22.10
2022-10-19T08:14:26.847Z,16.83
2022-10-19T08:16:54.422Z,15.55
2022-10-19T08:19:22.754Z,15.95
2022-10-19T08:21:52.174Z,23.45
2022-10-19T08:24:20.916Z,16.80
2022-10-19T08:26:51.275Z,16.00
2022-10-19T08:29:26.644Z,15.13
2022-10-19T08:32:02.010Z,16.83
2022-10-19T08:34:29.250Z,18.20
2022-10-19T08:36:58.908Z,13.85
2022-10-19T08:39:28.123Z,19.05
2022-10-19T08:42:16.514Z,26.77
2022-10-19T08:45:15.501Z,21.42
2022-10-19T08:48:01.225Z,15.35
2022-10-19T08:50:45.339Z,16.48
2022-10-19T08:53:19.744Z,11.80
2022-10-19T08:56:26.837Z,16.13
2022-10-19T08:59:18.965Z,22.73
2022-10-19T09:01:51.801Z,21.30
2022-10-19T09:07:31.489Z,19.27
2022-10-19T09:10:10.948Z,18.83
2022-10-19T09:12:55.100Z,21.05
2022-10-19T09:15:40.184Z,18.25
2022-10-19T09:18:29.098Z,20.08
2022-10-19T09:21:06.478Z,17.65
2022-10-19T09:23:55.350Z,15.57
2022-10-19T09:26:27.973Z,21.35
2022-10-19T09:29:04.798Z,37.00
2022-10-19T09:31:40.231Z,21.88
2022-10-19T09:34:21.723Z,28.75
2022-10-19T09:36:57.503Z,18.13
2022-10-19T09:39:29.341Z,21.88
2022-10-19T09:42:26.491Z,15.88
2022-10-19T09:44:55.157Z,17.45
2022-10-19T09:47:39.143Z,20.98
2022-10-19T09:50:18.405Z,24.00
2022-10-19T09:52:55.434Z,26.73
2022-10-19T09:55:45.712Z,27.98
2022-10-19T09:58:29.232Z,21.70
2022-10-19T10:01:02.071Z,22.98
2022-10-19T10:03:36.357Z,26.60
2022-10-19T10:06:07.275Z,25.85
2022-10-19T10:08:38.192Z,24.60
2022-10-19T10:11:24.918Z,27.92
2022-10-19T10:13:54.567Z,24.70
2022-10-19T10:16:24.674Z,19.92
2022-10-19T10:18:57.036Z,20.40
2022-10-19T10:21:27.613Z,21.83
2022-10-19T10:24:16.932Z,20.88
2022-10-19T10:26:47.144Z,18.83
2022-10-19T10:29:25.939Z,21.02
2022-10-19T10:32:09.165Z,17.05
2022-10-19T10:34:51.910Z,17.73
2022-10-19T10:37:32.549Z,18.10
2022-10-19T10:40:03.902Z,16.45
2022-10-19T10:42:45.747Z,16.17
2022-10-19T10:45:24.249Z,15.55
2022-10-19T10:47:53.056Z,16.02
2022-10-19T10:50:27.938Z,15.00
2022-10-19T10:53:03.855Z,19.65
2022-10-19T10:55:32.800Z,13.57
2022-10-19T10:58:26.861Z,15.13
2022-10-19T11:01:01.100Z,13.38
2022-10-19T11:03:33.259Z,10.35
2022-10-19T11:06:02.706Z,8.90
2022-10-19T11:08:52.376Z,14.02
2022-10-19T11:11:24.554Z,8.85
2022-10-19T11:14:46.186Z,18.35
2022-10-19T11:17:36.956Z,14.73
2022-10-19T11:20:07.885Z,11.88
2022-10-19T11:22:48.125Z,12.55
2022-10-19T11:25:25.224Z,10.95
2022-10-19T11:28:15.329Z,12.57
2022-10-19T11:31:06.758Z,13.45
2022-10-19T11:33:48.173Z,16.00
2022-10-19T11:36:46.401Z,5.00
2022-10-19T11:39:58.377Z,8.98
2022-10-19T11:42:26.507Z,6.35
2022-10-19T11:45:00.197Z,5.57
2022-10-19T11:47:53.050Z,10.25
2022-10-19T11:50:44.074Z,10.52
2022-10-19T11:53:48.932Z,7.57
2022-10-19T11:57:01.855Z,7.03
2022-10-19T11:59:42.692Z,5.93
2022-10-19T12:02:29.230Z,8.10
2022-10-19T12:05:16.391Z,6.40
2022-10-19T12:08:08.977Z,7.18
2022-10-19T12:10:45.689Z,6.93
2022-10-19T12:13:20.496Z,9.32
2022-10-19T12:15:54.809Z,5.78
2022-10-19T12:18:56.676Z,7.93
2022-10-19T12:21:39.218Z,9.95
2022-10-19T12:24:27.067Z,7.15
2022-10-19T12:26:58.459Z,6.90
2022-10-19T12:29:34.473Z,6.93
2022-10-19T12:32:03.237Z,5.40
2022-10-19T12:34:38.499Z,4.28
2022-10-19T12:39:41.512Z,6.75
2022-10-19T12:42:31.971Z,7.57
2022-10-19T12:45:44.159Z,10.10
2022-10-19T12:48:20.040Z,6.85
2022-10-19T12:50:48.195Z,6.28
2022-10-19T12:53:27.483Z,7.03
2022-10-19T12:56:15.477Z,4.75
2022-10-19T13:01:25.917Z,5.10
2022-10-19T13:04:16.806Z,2.70
2022-10-19T13:07:06.338Z,4.13
2022-10-19T13:09:43.471Z,3.72
2022-10-19T13:12:26.030Z,5.68
2022-10-19T13:15:01.405Z,4.43
2022-10-19T13:17:36.923Z,7.78
2022-10-19T13:20:19.430Z,3.17
2022-10-19T13:23:04.922Z,3.95
2022-10-19T13:25:34.415Z,3.13
2022-10-19T13:28:07.997Z,5.53
2022-10-19T13:30:40.309Z,6.10
2022-10-19T13:33:47.800Z,3.25
2022-10-19T13:36:15.762Z,3.33
2022-10-19T13:38:59.379Z,4.65
2022-10-19T13:41:49.443Z,2.28
2022-10-19T13:44:19.223Z,2.03
2022-10-19T13:46:55.640Z,2.85
2022-10-19T13:49:57.211Z,7.88
2022-10-19T13:52:50.739Z,3.30
2022-10-19T13:56:08.129Z,5.55
2022-10-19T13:59:32.016Z,2.97
2022-10-19T14:02:39.360Z,2.75
2022-10-19T14:05:41.964Z,4.57
2022-10-19T14:08:11.282Z,1.95
2022-10-19T14:13:30.581Z,4.10
2022-10-19T14:16:01.836Z,3.05
2022-10-19T14:18:30.873Z,4.05
2022-10-19T14:21:09.052Z,2.20
2022-10-19T14:23:40.166Z,4.70
2022-10-19T14:26:15.340Z,3.95
2022-10-19T14:29:00.926Z,4.55
2022-10-19T14:34:20.513Z,6.95
2022-10-19T14:36:49.623Z,7.32
2022-10-19T14:41:55.906Z,8.13
2022-10-19T14:44:41.229Z,7.47
2022-10-19T14:47:30.927Z,7.60
2022-10-19T14:50:09.794Z,6.07
2022-10-19T14:52:43.191Z,7.35
2022-10-19T14:55:17.859Z,8.57
2022-10-19T14:57:49.274Z,7.97
2022-10-19T15:00:32.317Z,9.82
2022-10-19T15:03:09.755Z,9.15
2022-10-19T15:05:42.131Z,6.45
2022-10-19T15:08:15.613Z,5.80
2022-10-19T15:10:48.546Z,5.07
2022-10-19T15:13:27.008Z,11.10
2022-10-19T15:15:55.625Z,9.32
2022-10-19T15:18:48.288Z,9.02
2022-10-19T15:21:21.858Z,6.60
2022-10-19T15:23:53.026Z,9.32
2022-10-19T15:26:25.662Z,7.75
2022-10-19T15:28:56.850Z,11.45
2022-10-19T15:31:28.374Z,10.45
2022-10-19T15:34:05.781Z,11.23
2022-10-19T15:36:33.862Z,20.90
2022-10-19T15:39:18.214Z,21.40
2022-10-19T15:41:54.187Z,16.95
2022-10-19T15:44:55.910Z,22.40
2022-10-19T15:47:25.901Z,22.08
2022-10-19T15:50:25.542Z,20.23
2022-10-19T15:52:52.575Z,17.45
2022-10-19T15:55:19.819Z,26.40
2022-10-19T15:58:01.460Z,24.83
2022-10-19T16:00:30.165Z,19.27
2022-10-19T16:02:59.605Z,19.88
2022-10-19T16:05:36.850Z,11.90
2022-10-19T16:08:25.347Z,17.00
2022-10-19T16:10:59.087Z,15.85
2022-10-19T16:13:30.858Z,13.50
2022-10-19T16:16:11.543Z,10.20
2022-10-19T16:18:39.246Z,8.65
2022-10-19T16:21:07.692Z,11.68
2022-10-19T16:23:39.542Z,13.27
2022-10-19T16:26:14.549Z,10.93
2022-10-19T16:28:42.983Z,14.63
2022-10-19T16:31:13.652Z,12.13
2022-10-19T16:33:40.766Z,19.13
2022-10-19T16:36:09.239Z,19.00
2022-10-19T16:44:39.472Z,15.57
2022-10-19T16:47:56.893Z,18.73
2022-10-19T16:53:58.107Z,15.50
2022-10-19T16:56:28.369Z,17.13
2022-10-19T16:59:04.789Z,12.57
2022-10-19T17:01:36.350Z,11.68
2022-10-19T17:04:05.657Z,17.73
2022-10-19T17:06:34.403Z,24.10
2022-10-19T17:11:49.962Z,22.17
2022-10-19T17:14:17.054Z,16.98
2022-10-19T17:16:44.414Z,18.63
2022-10-19T17:19:12.887Z,20.17
2022-10-19T17:21:46.518Z,21.65
2022-10-19T17:24:24.443Z,21.20
2022-10-19T17:26:53.168Z,16.30
2022-10-19T17:29:23.954Z,14.57
2022-10-19T17:37:29.420Z,12.80
2022-10-19T17:39:56.660Z,18.30
2022-10-19T17:42:23.932Z,12.93
2022-10-19T17:44:56.599Z,13.90
2022-10-19T17:50:07.822Z,28.00
2022-10-19T17:52:35.516Z,28.30
2022-10-19T17:57:48.251Z,33.30
2022-10-19T18:00:15.709Z,36.45
2022-10-19T18:06:24.124Z,32.25
2022-10-19T18:08:55.503Z,35.90
2022-10-19T18:11:35.147Z,40.42
2022-10-19T18:14:07.059Z,44.97
2022-10-19T18:16:38.290Z,34.10
2022-10-19T18:19:07.487Z,43.65
2022-10-19T18:24:23.590Z,36.42
2022-10-19T18:26:51.739Z,36.60
2022-10-19T18:29:22.494Z,37.15
2022-10-19T18:31:59.797Z,38.00
2022-10-19T18:34:32.562Z,40.25
2022-10-19T18:37:03.139Z,30.17
2022-10-19T18:39:32.312Z,36.88
2022-10-19T18:45:04.989Z,36.13
2022-10-19T18:47:32.331Z,33.33
2022-10-19T18:49:59.283Z,35.05
2022-10-19T18:52:28.558Z,30.70
2022-10-19T18:54:55.599Z,30.20
2022-10-19T18:57:42.876Z,31.50
2022-10-19T19:00:10.861Z,28.88
2022-10-19T19:05:15.147Z,24.88
2022-10-19T19:07:42.557Z,26.63
2022-10-19T19:10:09.640Z,22.08
2022-10-19T19:12:39.540Z,23.58
2022-10-19T19:15:09.992Z,16.88
2022-10-19T19:17:39.351Z,16.10
2022-10-19T19:20:09.966Z,14.05
2022-10-19T19:22:46.973Z,11.88
2022-10-19T19:25:16.523Z,13.68
2022-10-19T19:27:50.991Z,17.63
2022-10-19T19:30:20.888Z,14.50
2022-10-19T19:32:48.937Z,12.65
2022-10-19T19:35:16.022Z,8.95
2022-10-19T19:37:47.127Z,11.65
2022-10-19T19:40:18.887Z,10.45
2022-10-19T19:42:52.247Z,10.90
2022-10-19T19:45:19.361Z,9.05
2022-10-19T19:47:46.747Z,9.20
2022-10-19T19:50:14.180Z,11.82
2022-10-19T19:55:09.771Z,10.30
2022-10-19T19:57:37.570Z,11.15
2022-10-19T20:00:05.655Z,9.10
2022-10-19T20:02:37.447Z,11.35
2022-10-19T20:05:04.778Z,9.70
2022-10-19T20:07:32.256Z,10.00
2022-10-19T20:09:59.376Z,7.75
2022-10-19T20:12:29.441Z,9.95
2022-10-19T20:14:56.654Z,7.13
2022-10-19T20:17:25.160Z,8.32
2022-10-19T20:19:52.579Z,6.38
2022-10-19T20:22:24.244Z,6.80
2022-10-19T20:24:52.160Z,10.25
2022-10-19T20:27:19.692Z,8.88
2022-10-19T20:29:47.997Z,10.95
2022-10-19T20:32:16.311Z,7.47
2022-10-19T20:34:44.653Z,8.73
2022-10-19T20:39:41.610Z,5.57
2022-10-19T20:42:09.259Z,5.63
2022-10-19T20:44:36.581Z,6.03
2022-10-19T20:47:03.792Z,7.72
2022-10-19T20:52:15.457Z,5.68
2022-10-19T20:54:43.494Z,5.13
2022-10-19T20:57:13.561Z,5.95
2022-10-19T20:59:41.626Z,6.85
2022-10-19T21:02:10.970Z,5.50
2022-10-19T21:04:38.061Z,4.28
2022-10-19T21:07:06.406Z,5.63
2022-10-19T21:09:33.689Z,4.40
2022-10-19T21:12:05.429Z,6.50
2022-10-19T21:14:33.605Z,4.45
2022-10-19T21:17:02.038Z,3.50
2022-10-19T21:19:31.493Z,4.13
2022-10-19T21:22:10.480Z,3.63
2022-10-19T21:24:41.973Z,5.25
2022-10-19T21:27:09.896Z,13.00
2022-10-19T21:29:38.047Z,4.85
2022-10-19T21:32:06.380Z,4.32
2022-10-19T21:34:33.970Z,4.25
2022-10-19T21:37:01.511Z,6.93
2022-10-19T21:39:29.470Z,6.15
2022-10-19T21:41:57.397Z,4.75
2022-10-19T21:44:24.407Z,8.40
2022-10-19T21:46:51.842Z,3.95
2022-10-19T21:49:19.050Z,4.50
2022-10-19T21:51:53.664Z,7.55
2022-10-19T21:54:26.622Z,5.70
2022-10-19T21:56:55.957Z,6.20
2022-10-19T21:59:23.034Z,6.40
2022-10-19T22:01:50.486Z,4.25
2022-10-19T22:04:18.605Z,8.52
2022-10-19T22:06:46.827Z,4.63
2022-10-19T22:09:17.342Z,7.45
2022-10-19T22:11:45.570Z,9.32
2022-10-19T22:14:14.002Z,4.03
2022-10-19T22:19:10.152Z,4.60
2022-10-19T22:24:09.609Z,4.72
2022-10-19T22:26:42.168Z,6.53
2022-10-19T22:29:09.542Z,4.63
2022-10-19T22:31:37.299Z,3.35
2022-10-19T22:34:06.979Z,9.07
2022-10-19T22:36:34.534Z,5.95
2022-10-19T22:39:01.898Z,3.53
2022-10-19T22:41:29.345Z,9.68
2022-10-19T22:43:56.322Z,4.05
2022-10-19T22:46:23.525Z,7.88
2022-10-19T22:48:50.475Z,8.43
2022-10-19T22:51:17.709Z,8.70
2022-10-19T22:53:45.251Z,4.45
2022-10-19T22:56:12.911Z,7.03
2022-10-19T22:58:40.383Z,4.07
2022-10-19T23:01:12.766Z,5.90
2022-10-19T23:03:40.918Z,3.25
2022-10-19T23:06:09.533Z,6.82
2022-10-19T23:08:37.178Z,7.13
2022-10-19T23:11:05.051Z,7.53
2022-10-19T23:13:32.049Z,4.65
2022-10-19T23:15:59.335Z,5.82
2022-10-19T23:18:26.665Z,5.18
2022-10-19T23:20:59.322Z,6.50
2022-10-19T23:23:27.133Z,4.13
2022-10-19T23:26:04.897Z,8.10
2022-10-19T23:28:33.650Z,4.85
2022-10-19T23:31:24.454Z,10.93
2022-10-19T23:33:53.277Z,4.80
2022-10-19T23:36:27.091Z,5.80
2022-10-19T23:38:56.117Z,5.13
2022-10-19T23:41:24.180Z,4.47
2022-10-19T23:43:51.321Z,2.53
2022-10-19T23:46:18.890Z,9.55
2022-10-19T23:48:45.908Z,5.78
2022-10-19T23:51:15.587Z,3.67
2022-10-19T23:53:44.969Z,3.47
2022-10-19T23:56:19.613Z,4.32
2022-10-19T23:58:47.355Z,5.47
